Αγία Πετρούπολη, Russia

09:48 AM MSK on Δεκέμβριος 03, 2016 (GMT +0300)
Pulkovo | | Change Station

Elev 75 ft 59.80 °N, 30.27 °E | Updated 18 minutes ago

Mostly Cloudy
Νεφελώδης
25 ° F
Feels Like 17 ° F
N
7
Ανεμος Μεταβλητός Ανεμος from Δυτικός

Σήμερα
High -- | Low -- ° F
--% Chance of Precip.
Yesterday
High -- | Low -- ° F
Precip. -- in
Ατμοσφαιρική Πίεση 29.65 in
Ορατότητα 6.2 Μίλια
Σύννεφα Νεφελώδης 1900 ft
Δείκτης Ψυχρότητας 17 ° F
Σημείο Δρόσου 25 ° F
Υγρασία 100%
Rainfall 0.00 in
Snow Depth Not available.
9:38 AM 3:59 PM
Μηνίσκος, 13% visible
METAR ULLI 030630Z 27003MPS 9999 BKN019 M04/M04 Q1004 R28L/510550 R28R/420540 NOSIG
Ατμοσφαιρική Πίεση 29.65 in
Ορατότητα 6.2 Μίλια
Σύννεφα Νεφελώδης 1900 ft
Δείκτης Ψυχρότητας 17 ° F
Σημείο Δρόσου 25 ° F
Υγρασία 100%
Rainfall 0.00 in
Snow Depth Not available.
9:38 AM 3:59 PM
Μηνίσκος, 13% visible
METAR ULLI 030630Z 27003MPS 9999 BKN019 M04/M04 Q1004 R28L/510550 R28R/420540 NOSIG

10-Day Weather Forecast

×

Almanac

Αστρονομία

Dec. 03, 2016 Rise Set
Actual Time
Civil Twilight
Nautical Twilight
Astronomical Twilight
Moon
Length Of Visible Light
Διάρκεια ημέρας
Tomorrow will be .
, % of the Moon is Illuminated

Today's Extremes

Country Highs Country Lows

Community

WunderPhotos

Upload Photos

1,955,432 photos uploaded!

WunderBlog® & News

Nearby

Air Quality

  Air Quality AQ Index Pollutant
Not available.

Snow Depth

Station Depth Elevation

Earthquake Activity

City Distance Mag. Time & Date
Minimum magnitude displayed is 2.5.

Coastal Water Temperatures

Τοποθεσία Θερμοκρασία

Stations

Nearby Weather Stations

Station Location Temp Δείκτης Ψυχρότητας Σημείο Δρόσου Υγρασία Ανεμος Precip. Elev Ενημερώθηκε Type